Time;durP1;ratioP1;P1;durP2;ratioP2;P2;SDS_P1;SDS_P2;PMS_P1;PMS_P2;Temp;Humidity;BMP_temperature;BMP_pressure;BME280_temperature;BME280_humidity;BME280_pressure;Samples;Min_cycle;Max_cycle;Signal;HPM_P1;HPM_P2
2023/09/13 00:01:31;;;;;;;5.35;4.85;;;;;;;;;;4986679;28;20041;-63
2023/09/13 00:03:58;;;;;;;5.30;4.90;;;;;;;;;;4992056;28;20045;-62
2023/09/13 00:06:24;;;;;;;5.68;5.18;;;;;;;;;;4994076;28;20030;-64
2023/09/13 00:08:49;;;;;;;6.10;4.63;;;;;;;;;;4996376;28;20447;-63
2023/09/13 00:11:15;;;;;;;6.60;5.03;;;;;;;;;;4995379;28;20117;-63
2023/09/13 00:13:41;;;;;;;5.18;4.78;;;;;;;;;;4991038;28;20042;-64
2023/09/13 00:16:07;;;;;;;6.22;4.93;;;;;;;;;;4990421;28;20051;-63
2023/09/13 00:18:32;;;;;;;5.10;4.70;;;;;;;;;;4991956;28;20412;-64
2023/09/13 00:20:58;;;;;;;7.10;5.18;;;;;;;;;;4995521;28;20088;-63
2023/09/13 00:23:23;;;;;;;7.05;4.85;;;;;;;;;;4994185;28;20137;-63
2023/09/13 00:25:49;;;;;;;4.68;4.28;;;;;;;;;;4994153;28;20034;-64
2023/09/13 00:28:14;;;;;;;5.43;4.93;;;;;;;;;;4985957;28;20029;-63
2023/09/13 00:30:40;;;;;;;5.22;4.82;;;;;;;;;;4992446;28;20042;-63
2023/09/13 00:33:05;;;;;;;5.55;4.78;;;;;;;;;;4990961;28;20848;-63
2023/09/13 00:35:30;;;;;;;6.75;4.78;;;;;;;;;;4989843;28;20042;-64
2023/09/13 00:37:56;;;;;;;6.53;4.63;;;;;;;;;;4992031;28;20452;-64
2023/09/13 00:40:21;;;;;;;4.80;4.50;;;;;;;;;;4992826;28;20031;-64
2023/09/13 00:42:47;;;;;;;5.82;5.18;;;;;;;;;;4993553;28;20113;-64
2023/09/13 00:45:12;;;;;;;5.57;5.03;;;;;;;;;;4989060;28;20038;-63
2023/09/13 00:47:40;;;;;;;6.97;4.43;;;;;;;;;;4994917;28;20105;-63
2023/09/13 00:50:09;;;;;;;6.57;4.90;;;;;;;;;;4995285;28;20061;-63
2023/09/13 00:52:35;;;;;;;5.28;4.78;;;;;;;;;;4991769;28;20057;-64
2023/09/13 00:55:04;;;;;;;6.45;4.57;;;;;;;;;;4992853;28;20043;-63
2023/09/13 00:57:30;;;;;;;7.15;5.30;;;;;;;;;;4993297;28;20105;-64
2023/09/13 00:59:55;;;;;;;5.10;4.63;;;;;;;;;;4994681;28;20042;-64
2023/09/13 01:02:21;;;;;;;5.40;4.90;;;;;;;;;;4988678;28;20045;-64
2023/09/13 01:04:46;;;;;;;6.68;5.00;;;;;;;;;;4987598;28;20046;-64
2023/09/13 01:07:13;;;;;;;5.28;4.78;;;;;;;;;;4992037;28;20014;-64
2023/09/13 01:09:39;;;;;;;4.90;4.50;;;;;;;;;;4983864;28;21229;-63
2023/09/13 01:12:05;;;;;;;4.97;4.57;;;;;;;;;;4993167;28;20097;-64
2023/09/13 01:14:30;;;;;;;5.05;4.75;;;;;;;;;;4987591;28;20042;-63
2023/09/13 01:17:48;;;;;;;5.38;4.88;;;;;;;;;;4984655;28;20027;-63
2023/09/13 01:20:20;;;;;;;6.07;5.15;;;;;;;;;;4981061;28;20042;-63
2023/09/13 01:22:55;;;;;;;6.90;4.90;;;;;;;;;;4987172;28;20094;-64
2023/09/13 01:25:30;;;;;;;5.45;4.85;;;;;;;;;;4993855;28;20412;-63
2023/09/13 01:28:29;;;;;;;5.50;5.10;;;;;;;;;;4985247;28;20068;-63
2023/09/13 01:30:55;;;;;;;5.45;4.95;;;;;;;;;;4992777;28;20031;-64
2023/09/13 01:33:20;;;;;;;5.20;4.75;;;;;;;;;;4987977;28;20041;-64
2023/09/13 01:35:46;;;;;;;7.07;4.88;;;;;;;;;;4998477;28;20039;-63
2023/09/13 01:38:11;;;;;;;5.88;5.22;;;;;;;;;;4985652;28;20030;-63
2023/09/13 01:40:40;;;;;;;5.43;5.03;;;;;;;;;;4989318;28;20492;-64
2023/09/13 01:43:07;;;;;;;6.70;5.07;;;;;;;;;;4998046;28;20038;-63
2023/09/13 01:45:34;;;;;;;5.65;5.05;;;;;;;;;;4998268;28;20508;-63
2023/09/13 01:48:02;;;;;;;5.57;5.00;;;;;;;;;;4997707;28;20026;-64
2023/09/13 01:50:28;;;;;;;5.30;4.85;;;;;;;;;;4986690;28;20045;-64
2023/09/13 01:52:54;;;;;;;5.63;5.13;;;;;;;;;;4995663;28;20041;-64
2023/09/13 01:55:20;;;;;;;5.28;4.85;;;;;;;;;;4997434;28;20030;-63
2023/09/13 01:57:45;;;;;;;6.93;5.60;;;;;;;;;;4995534;28;20049;-64
2023/09/13 02:00:12;;;;;;;6.03;5.18;;;;;;;;;;4995409;28;20046;-64
2023/09/13 02:02:37;;;;;;;5.72;5.32;;;;;;;;;;4992627;28;20030;-64
2023/09/13 02:05:03;;;;;;;5.10;4.70;;;;;;;;;;4998040;28;20043;-64
2023/09/13 02:07:28;;;;;;;5.82;5.32;;;;;;;;;;4996162;28;20026;-64
2023/09/13 02:09:54;;;;;;;5.70;5.20;;;;;;;;;;4989560;28;20034;-63
2023/09/13 02:12:19;;;;;;;5.53;5.00;;;;;;;;;;4992199;28;20030;-64
2023/09/13 02:14:45;;;;;;;5.30;4.90;;;;;;;;;;4993426;28;20117;-64
2023/09/13 02:17:10;;;;;;;5.43;4.97;;;;;;;;;;4994011;28;20048;-63
2023/09/13 02:19:36;;;;;;;5.68;5.18;;;;;;;;;;4997612;28;20799;-64
2023/09/13 02:22:03;;;;;;;4.95;4.65;;;;;;;;;;4997732;28;20077;-63
2023/09/13 02:24:28;;;;;;;5.43;4.90;;;;;;;;;;4997759;28;20122;-63
2023/09/13 02:26:57;;;;;;;5.70;5.20;;;;;;;;;;4995472;28;20046;-64
2023/09/13 02:29:23;;;;;;;5.90;5.28;;;;;;;;;;4995350;28;20046;-64
2023/09/13 02:31:49;;;;;;;5.85;5.25;;;;;;;;;;4996651;28;20463;-64
2023/09/13 02:34:14;;;;;;;8.43;4.70;;;;;;;;;;4994225;28;20077;-64
2023/09/13 02:36:40;;;;;;;6.20;4.55;;;;;;;;;;4991031;28;20037;-64
2023/09/13 02:39:05;;;;;;;5.22;4.72;;;;;;;;;;4985186;28;20042;-64
2023/09/13 02:41:31;;;;;;;5.40;4.90;;;;;;;;;;4997946;28;20508;-64
2023/09/13 02:43:57;;;;;;;5.45;5.00;;;;;;;;;;4987257;28;20146;-63
2023/09/13 02:46:22;;;;;;;5.60;5.20;;;;;;;;;;4995096;28;20022;-64
2023/09/13 02:48:48;;;;;;;5.60;5.20;;;;;;;;;;4993469;28;20026;-64
2023/09/13 02:51:14;;;;;;;5.65;5.15;;;;;;;;;;4997491;28;20038;-64
2023/09/13 02:53:40;;;;;;;5.18;4.68;;;;;;;;;;4995103;28;20141;-64
2023/09/13 02:56:06;;;;;;;5.65;5.25;;;;;;;;;;4992278;28;20848;-64
2023/09/13 02:58:32;;;;;;;5.50;4.95;;;;;;;;;;4989504;28;20484;-64
2023/09/13 03:00:58;;;;;;;5.88;5.40;;;;;;;;;;4993398;28;20027;-64
2023/09/13 03:03:24;;;;;;;5.68;5.05;;;;;;;;;;4996297;28;20045;-64
2023/09/13 03:05:49;;;;;;;6.43;5.20;;;;;;;;;;4986448;28;20378;-64
2023/09/13 03:08:14;;;;;;;6.15;4.80;;;;;;;;;;4994535;28;20018;-64
2023/09/13 03:10:40;;;;;;;5.65;5.25;;;;;;;;;;4995062;28;20039;-64
2023/09/13 03:13:05;;;;;;;5.93;5.32;;;;;;;;;;4993815;28;20033;-64
2023/09/13 03:15:34;;;;;;;6.22;4.47;;;;;;;;;;4996907;28;20126;-64
2023/09/13 03:18:00;;;;;;;4.95;4.55;;;;;;;;;;4991569;28;20056;-63
2023/09/13 03:20:26;;;;;;;5.50;5.10;;;;;;;;;;4997414;28;20050;-64
2023/09/13 03:22:51;;;;;;;4.93;4.57;;;;;;;;;;4995647;28;20018;-64
2023/09/13 03:25:17;;;;;;;5.55;5.03;;;;;;;;;;4996434;28;20077;-63
2023/09/13 03:27:42;;;;;;;5.25;4.72;;;;;;;;;;4995772;28;20092;-64
2023/09/13 03:30:09;;;;;;;6.22;5.57;;;;;;;;;;4996676;28;20061;-64
2023/09/13 03:32:34;;;;;;;5.90;5.30;;;;;;;;;;4994901;28;20053;-64
2023/09/13 03:34:59;;;;;;;5.90;5.30;;;;;;;;;;4995380;28;20346;-64
2023/09/13 03:37:25;;;;;;;6.88;4.75;;;;;;;;;;4986364;28;20064;-64
2023/09/13 03:39:50;;;;;;;5.70;5.15;;;;;;;;;;4990047;28;20534;-64
2023/09/13 03:42:16;;;;;;;5.47;5.07;;;;;;;;;;4996510;28;20034;-64
2023/09/13 03:44:41;;;;;;;5.70;5.10;;;;;;;;;;4996896;28;20048;-63
2023/09/13 03:47:06;;;;;;;7.85;5.28;;;;;;;;;;4992806;28;20033;-64
2023/09/13 03:49:32;;;;;;;5.70;5.30;;;;;;;;;;4994612;28;20038;-64
2023/09/13 03:51:57;;;;;;;6.30;4.90;;;;;;;;;;4993022;28;20050;-63
2023/09/13 03:54:24;;;;;;;6.00;5.40;;;;;;;;;;4992813;28;20054;-63
2023/09/13 03:56:49;;;;;;;5.40;4.93;;;;;;;;;;4996311;28;20025;-64
2023/09/13 03:59:15;;;;;;;5.57;5.07;;;;;;;;;;4991647;28;20535;-63
2023/09/13 04:01:40;;;;;;;5.78;5.03;;;;;;;;;;4993531;28;20045;-63
2023/09/13 04:04:06;;;;;;;5.47;5.05;;;;;;;;;;4989807;28;20041;-63
2023/09/13 04:06:31;;;;;;;5.20;4.80;;;;;;;;;;4996749;28;20112;-63
2023/09/13 04:08:57;;;;;;;5.13;4.70;;;;;;;;;;4993166;28;20403;-61
2023/09/13 04:11:22;;;;;;;7.32;5.50;;;;;;;;;;4987632;28;20038;-63
2023/09/13 04:13:47;;;;;;;5.85;5.45;;;;;;;;;;4995016;28;20393;-65
2023/09/13 04:16:15;;;;;;;6.93;5.28;;;;;;;;;;4994789;28;20121;-64
2023/09/13 04:18:41;;;;;;;5.40;5.00;;;;;;;;;;4995064;28;20089;-64
2023/09/13 04:21:06;;;;;;;6.22;5.07;;;;;;;;;;4995461;28;20050;-64
2023/09/13 04:23:32;;;;;;;4.85;4.55;;;;;;;;;;4989694;28;20566;-64
2023/09/13 04:25:57;;;;;;;7.95;5.18;;;;;;;;;;4986165;28;20042;-63
2023/09/13 04:28:22;;;;;;;7.85;5.00;;;;;;;;;;4993230;28;20039;-63
2023/09/13 04:30:48;;;;;;;5.75;4.90;;;;;;;;;;4993565;28;20522;-64
2023/09/13 04:33:13;;;;;;;5.43;5.03;;;;;;;;;;4993224;28;20045;-64
2023/09/13 04:35:39;;;;;;;6.60;4.90;;;;;;;;;;4994745;28;20041;-64
2023/09/13 04:38:05;;;;;;;4.97;4.50;;;;;;;;;;4982720;28;20041;-64
2023/09/13 04:40:30;;;;;;;6.40;5.22;;;;;;;;;;4988146;28;20049;-63
2023/09/13 04:43:05;;;;;;;6.57;4.50;;;;;;;;;;4993522;28;20030;-64
2023/09/13 04:45:30;;;;;;;6.28;4.80;;;;;;;;;;4994246;28;20054;-63
2023/09/13 04:47:56;;;;;;;4.80;4.40;;;;;;;;;;4992718;28;20030;-63
2023/09/13 04:50:21;;;;;;;7.10;5.13;;;;;;;;;;4994039;28;20041;-63
2023/09/13 04:52:46;;;;;;;5.32;4.93;;;;;;;;;;4986296;28;20026;-63
2023/09/13 04:55:12;;;;;;;5.20;4.80;;;;;;;;;;4995716;28;20034;-63
2023/09/13 04:57:38;;;;;;;5.63;4.95;;;;;;;;;;4991589;28;20435;-63
2023/09/13 05:00:07;;;;;;;8.10;5.28;;;;;;;;;;4989177;28;20092;-63
2023/09/13 05:02:33;;;;;;;5.68;5.00;;;;;;;;;;4993947;28;20682;-64
2023/09/13 05:04:58;;;;;;;6.60;4.57;;;;;;;;;;4989049;28;20039;-64
2023/09/13 05:07:23;;;;;;;4.88;4.47;;;;;;;;;;4995127;28;20118;-64
2023/09/13 05:09:49;;;;;;;6.32;5.03;;;;;;;;;;4997314;28;20535;-64
2023/09/13 05:12:14;;;;;;;7.00;5.10;;;;;;;;;;4985074;28;20033;-64
2023/09/13 05:14:42;;;;;;;5.57;5.10;;;;;;;;;;4989858;28;20046;-64
2023/09/13 05:17:08;;;;;;;7.60;4.90;;;;;;;;;;4992404;28;20029;-64
2023/09/13 05:19:33;;;;;;;9.02;5.50;;;;;;;;;;4994232;28;20046;-64
2023/09/13 05:21:58;;;;;;;5.50;5.00;;;;;;;;;;4995266;28;20122;-65
2023/09/13 05:24:24;;;;;;;5.30;4.90;;;;;;;;;;4994156;28;20038;-64
2023/09/13 05:26:50;;;;;;;5.18;4.60;;;;;;;;;;4983773;28;20033;-65
2023/09/13 05:29:16;;;;;;;5.35;4.95;;;;;;;;;;4986990;28;20027;-65
2023/09/13 05:31:41;;;;;;;6.30;4.90;;;;;;;;;;4980957;28;20085;-63
2023/09/13 05:34:07;;;;;;;4.63;4.32;;;;;;;;;;4990738;28;20121;-66
2023/09/13 05:36:32;;;;;;;6.80;5.20;;;;;;;;;;4987200;28;20076;-65
2023/09/13 05:38:58;;;;;;;5.25;4.72;;;;;;;;;;4986285;28;20030;-64
2023/09/13 05:41:24;;;;;;;5.55;5.07;;;;;;;;;;4992277;28;20512;-64
2023/09/13 05:43:49;;;;;;;9.85;5.20;;;;;;;;;;4991229;28;20034;-64
2023/09/13 05:46:15;;;;;;;5.93;4.75;;;;;;;;;;4981660;28;21110;-64
2023/09/13 05:48:41;;;;;;;7.85;4.90;;;;;;;;;;4988689;28;20125;-63
2023/09/13 05:51:06;;;;;;;5.85;4.40;;;;;;;;;;4985078;28;20094;-65
2023/09/13 05:53:32;;;;;;;5.72;4.68;;;;;;;;;;5025009;28;20040;-64
2023/09/13 05:55:57;;;;;;;10.13;5.20;;;;;;;;;;4989225;28;20039;-64
2023/09/13 05:58:23;;;;;;;5.85;4.80;;;;;;;;;;4992726;28;20030;-64
2023/09/13 06:00:49;;;;;;;6.50;4.85;;;;;;;;;;4992526;28;20101;-64
2023/09/13 06:03:19;;;;;;;6.30;4.95;;;;;;;;;;4986422;28;20037;-63
2023/09/13 06:05:50;;;;;;;5.70;5.05;;;;;;;;;;4982876;28;20101;-63
2023/09/13 06:08:15;;;;;;;6.30;5.68;;;;;;;;;;4983655;28;20027;-63
2023/09/13 06:10:41;;;;;;;8.00;5.25;;;;;;;;;;4990564;28;20038;-64
2023/09/13 06:13:07;;;;;;;5.75;5.20;;;;;;;;;;4998618;28;20030;-64
2023/09/13 06:15:32;;;;;;;8.43;5.53;;;;;;;;;;4993113;28;20034;-63
2023/09/13 06:17:58;;;;;;;7.97;5.40;;;;;;;;;;4996642;28;20522;-63
2023/09/13 06:20:24;;;;;;;8.85;5.97;;;;;;;;;;4990703;28;20034;-63
2023/09/13 06:22:49;;;;;;;11.88;5.20;;;;;;;;;;4997860;28;20022;-63
2023/09/13 06:25:17;;;;;;;11.80;5.53;;;;;;;;;;4992757;28;20050;-63
2023/09/13 06:27:46;;;;;;;11.43;5.75;;;;;;;;;;4995721;28;20034;-63
2023/09/13 06:30:13;;;;;;;6.00;5.50;;;;;;;;;;4994076;28;20050;-63
2023/09/13 06:32:39;;;;;;;8.00;5.10;;;;;;;;;;4997178;28;20026;-63
2023/09/13 06:35:05;;;;;;;7.00;5.28;;;;;;;;;;4988501;28;20578;-63
2023/09/13 06:37:30;;;;;;;6.93;5.55;;;;;;;;;;4989952;28;20034;-63
2023/09/13 06:39:55;;;;;;;9.65;5.40;;;;;;;;;;4995225;28;20423;-63
2023/09/13 06:42:21;;;;;;;5.88;5.38;;;;;;;;;;4988661;28;20030;-63
2023/09/13 06:44:46;;;;;;;13.65;5.38;;;;;;;;;;4987897;28;20041;-63
2023/09/13 06:47:12;;;;;;;6.32;5.25;;;;;;;;;;4994288;28;20126;-63
2023/09/13 06:49:37;;;;;;;8.07;5.28;;;;;;;;;;4988383;28;20035;-63
2023/09/13 06:52:03;;;;;;;8.15;4.88;;;;;;;;;;4998285;28;20081;-63
2023/09/13 06:54:28;;;;;;;5.28;4.80;;;;;;;;;;4994009;28;20416;-63
2023/09/13 06:56:54;;;;;;;6.35;4.93;;;;;;;;;;4993429;28;20022;-63
2023/09/13 06:59:19;;;;;;;8.52;5.47;;;;;;;;;;4985707;28;20034;-63
2023/09/13 07:01:45;;;;;;;5.75;4.93;;;;;;;;;;4993176;28;20031;-63
2023/09/13 07:04:11;;;;;;;4.50;4.20;;;;;;;;;;4994419;28;20061;-63
2023/09/13 07:06:36;;;;;;;5.53;5.05;;;;;;;;;;4984826;28;20057;-63
2023/09/13 07:09:03;;;;;;;8.38;5.47;;;;;;;;;;4994038;28;20026;-63
2023/09/13 07:11:29;;;;;;;8.82;5.07;;;;;;;;;;4994807;28;20041;-63
2023/09/13 07:13:54;;;;;;;5.80;5.25;;;;;;;;;;4993437;28;20038;-63
2023/09/13 07:16:20;;;;;;;5.50;5.00;;;;;;;;;;4990360;28;20034;-63
2023/09/13 07:18:45;;;;;;;7.38;5.07;;;;;;;;;;4983186;28;20101;-64
2023/09/13 07:21:10;;;;;;;7.95;4.75;;;;;;;;;;4986271;28;20054;-63
2023/09/13 07:23:36;;;;;;;5.95;4.95;;;;;;;;;;4988005;28;20088;-63
2023/09/13 07:26:02;;;;;;;6.93;4.93;;;;;;;;;;4985678;28;20105;-63
2023/09/13 07:28:28;;;;;;;5.50;4.70;;;;;;;;;;4989942;28;20054;-64
2023/09/13 07:30:53;;;;;;;6.43;5.60;;;;;;;;;;4992765;28;20030;-63
2023/09/13 07:33:19;;;;;;;10.52;4.78;;;;;;;;;;4989302;28;20034;-64
2023/09/13 07:35:44;;;;;;;6.72;4.20;;;;;;;;;;4991426;28;20137;-64
2023/09/13 07:38:10;;;;;;;5.13;4.50;;;;;;;;;;4990558;28;20090;-64
2023/09/13 07:40:38;;;;;;;6.32;4.68;;;;;;;;;;4983874;28;20103;-67
2023/09/13 07:43:05;;;;;;;5.40;4.90;;;;;;;;;;4992142;28;20114;-64
2023/09/13 07:45:32;;;;;;;6.18;4.70;;;;;;;;;;4980856;28;20043;-64
2023/09/13 07:47:59;;;;;;;4.72;4.32;;;;;;;;;;4987772;28;20113;-64
2023/09/13 07:50:29;;;;;;;6.95;4.85;;;;;;;;;;4995433;28;20034;-64
2023/09/13 07:52:55;;;;;;;5.10;4.60;;;;;;;;;;4989491;28;20370;-64
2023/09/13 07:55:21;;;;;;;5.65;4.85;;;;;;;;;;4989763;28;20057;-64
2023/09/13 07:57:46;;;;;;;11.93;4.57;;;;;;;;;;4988459;28;20030;-68
2023/09/13 08:00:12;;;;;;;5.95;4.40;;;;;;;;;;4978833;28;20035;-64
2023/09/13 08:02:37;;;;;;;5.35;4.82;;;;;;;;;;4982248;28;20064;-64
2023/09/13 08:05:04;;;;;;;7.13;4.82;;;;;;;;;;4992757;28;20480;-64
2023/09/13 08:07:29;;;;;;;7.43;4.60;;;;;;;;;;4988211;28;20035;-64
2023/09/13 08:09:55;;;;;;;6.50;4.80;;;;;;;;;;4984741;28;20508;-64
2023/09/13 08:12:20;;;;;;;6.75;4.50;;;;;;;;;;4992091;28;20035;-64
2023/09/13 08:14:46;;;;;;;10.82;4.43;;;;;;;;;;4993527;28;20066;-64
2023/09/13 08:17:11;;;;;;;5.07;4.68;;;;;;;;;;4989573;28;20037;-64
2023/09/13 08:19:36;;;;;;;4.97;4.47;;;;;;;;;;4987937;28;20050;-64
2023/09/13 08:22:04;;;;;;;8.52;4.20;;;;;;;;;;4995231;28;20053;-64
2023/09/13 08:24:32;;;;;;;9.57;4.65;;;;;;;;;;4985730;28;20582;-65
2023/09/13 08:26:58;;;;;;;8.02;4.80;;;;;;;;;;4989259;28;20022;-60
2023/09/13 08:29:23;;;;;;;5.55;4.32;;;;;;;;;;4992920;28;20657;-61
2023/09/13 08:31:49;;;;;;;8.75;4.93;;;;;;;;;;4993255;28;20084;-61
2023/09/13 08:34:14;;;;;;;7.10;4.43;;;;;;;;;;4989319;28;20033;-61
2023/09/13 08:36:40;;;;;;;4.72;4.20;;;;;;;;;;4990665;28;20022;-61
2023/09/13 08:39:05;;;;;;;4.60;3.88;;;;;;;;;;4988549;28;20030;-60
2023/09/13 08:41:31;;;;;;;4.35;3.90;;;;;;;;;;4988348;28;20030;-61
2023/09/13 08:43:59;;;;;;;4.30;3.90;;;;;;;;;;4985734;28;20477;-61
2023/09/13 08:46:26;;;;;;;3.83;3.53;;;;;;;;;;4983796;28;20046;-61
2023/09/13 08:48:52;;;;;;;4.63;3.90;;;;;;;;;;4991426;28;20038;-64
2023/09/13 08:51:19;;;;;;;3.90;3.50;;;;;;;;;;4981422;28;20034;-64
2023/09/13 08:53:45;;;;;;;3.95;3.55;;;;;;;;;;4983331;28;20440;-65
2023/09/13 08:56:12;;;;;;;8.32;3.80;;;;;;;;;;4988208;28;20062;-65
2023/09/13 08:58:37;;;;;;;6.93;3.85;;;;;;;;;;4994790;28;20077;-65
2023/09/13 09:01:06;;;;;;;4.63;3.70;;;;;;;;;;4989069;28;20031;-65
2023/09/13 09:03:34;;;;;;;5.32;3.58;;;;;;;;;;4986358;28;20030;-65
2023/09/13 09:06:00;;;;;;;3.50;3.22;;;;;;;;;;4985056;28;20027;-65
2023/09/13 09:08:26;;;;;;;3.75;3.45;;;;;;;;;;4995337;28;20034;-65
2023/09/13 09:10:56;;;;;;;4.97;3.58;;;;;;;;;;4994307;28;20034;-65
2023/09/13 09:13:24;;;;;;;4.57;4.18;;;;;;;;;;4991106;28;20022;-65
2023/09/13 09:15:52;;;;;;;5.00;3.40;;;;;;;;;;4993919;28;20433;-65
2023/09/13 09:18:19;;;;;;;4.65;3.65;;;;;;;;;;4992430;28;20134;-65
2023/09/13 09:20:44;;;;;;;3.90;3.45;;;;;;;;;;5004724;28;20063;-65
2023/09/13 09:23:11;;;;;;;3.65;3.42;;;;;;;;;;4994755;28;20396;-65
2023/09/13 09:25:39;;;;;;;3.65;3.40;;;;;;;;;;4992361;28;20034;-65
2023/09/13 09:28:05;;;;;;;3.50;3.30;;;;;;;;;;4985233;28;20031;-65
2023/09/13 09:30:32;;;;;;;3.97;3.35;;;;;;;;;;4991840;28;20059;-65
2023/09/13 09:33:05;;;;;;;3.95;3.58;;;;;;;;;;4994591;28;20058;-65
2023/09/13 09:35:31;;;;;;;3.47;3.00;;;;;;;;;;4992752;28;20037;-65
2023/09/13 09:37:57;;;;;;;3.95;3.65;;;;;;;;;;4995571;28;20026;-65
2023/09/13 09:40:22;;;;;;;3.83;3.47;;;;;;;;;;4993902;28;20089;-65
2023/09/13 09:42:56;;;;;;;3.53;3.30;;;;;;;;;;4992186;28;20038;-65
2023/09/13 09:45:23;;;;;;;3.85;3.47;;;;;;;;;;4994797;28;20042;-65
2023/09/13 09:47:52;;;;;;;6.57;3.70;;;;;;;;;;4990833;28;20050;-65
2023/09/13 09:50:18;;;;;;;3.72;3.42;;;;;;;;;;4993436;28;20038;-65
2023/09/13 09:52:52;;;;;;;4.25;3.42;;;;;;;;;;4992880;28;20041;-65
2023/09/13 09:55:23;;;;;;;3.65;3.42;;;;;;;;;;4995253;28;20034;-65
2023/09/13 09:57:50;;;;;;;3.90;3.60;;;;;;;;;;4997125;28;20041;-65
2023/09/13 10:00:16;;;;;;;3.40;3.13;;;;;;;;;;4993228;28;20552;-65
2023/09/13 10:02:45;;;;;;;3.50;3.30;;;;;;;;;;4986081;28;20053;-65
2023/09/13 10:05:16;;;;;;;3.50;3.15;;;;;;;;;;4992423;28;20047;-65
2023/09/13 10:07:50;;;;;;;9.93;4.18;;;;;;;;;;4994014;28;20126;-65
2023/09/13 10:10:35;;;;;;;6.25;3.92;;;;;;;;;;4992870;28;20035;-65
2023/09/13 10:13:03;;;;;;;6.25;3.45;;;;;;;;;;4992446;28;20485;-65
2023/09/13 10:15:29;;;;;;;4.43;3.72;;;;;;;;;;4989631;28;20042;-65
2023/09/13 10:17:57;;;;;;;5.82;3.90;;;;;;;;;;4994070;28;20129;-65
2023/09/13 10:20:24;;;;;;;5.70;3.65;;;;;;;;;;4995559;28;20034;-65
2023/09/13 10:22:50;;;;;;;4.38;3.85;;;;;;;;;;4987217;28;20037;-65
2023/09/13 10:25:18;;;;;;;6.47;3.78;;;;;;;;;;4989957;28;20038;-65
2023/09/13 10:27:48;;;;;;;4.93;4.35;;;;;;;;;;4988350;28;20030;-65
2023/09/13 10:30:22;;;;;;;6.85;4.32;;;;;;;;;;4983296;28;20145;-66
2023/09/13 10:32:53;;;;;;;15.50;4.18;;;;;;;;;;4985487;28;20034;-65
2023/09/13 10:35:19;;;;;;;8.10;4.20;;;;;;;;;;4983374;28;20035;-65
2023/09/13 10:37:58;;;;;;;4.25;3.92;;;;;;;;;;4981325;28;20034;-65
2023/09/13 10:40:37;;;;;;;5.85;3.95;;;;;;;;;;4984314;28;20107;-65
2023/09/13 10:43:03;;;;;;;4.80;4.00;;;;;;;;;;4986772;28;20060;-65
2023/09/13 10:45:29;;;;;;;4.95;4.43;;;;;;;;;;4985596;28;20049;-65
2023/09/13 10:47:57;;;;;;;3.90;3.60;;;;;;;;;;4985500;28;20022;-65
2023/09/13 10:50:25;;;;;;;4.18;3.88;;;;;;;;;;4985582;28;21475;-65
2023/09/13 10:52:52;;;;;;;4.10;3.70;;;;;;;;;;4987335;28;20029;-65
2023/09/13 10:55:19;;;;;;;5.75;3.72;;;;;;;;;;4985223;28;20034;-65
2023/09/13 10:57:46;;;;;;;5.13;4.28;;;;;;;;;;4991082;28;20027;-65
2023/09/13 11:00:15;;;;;;;4.22;3.92;;;;;;;;;;4983558;28;20500;-65
2023/09/13 11:02:43;;;;;;;8.40;4.13;;;;;;;;;;4993373;28;20034;-65
2023/09/13 11:05:10;;;;;;;9.98;3.90;;;;;;;;;;4980684;28;20106;-65
2023/09/13 11:07:43;;;;;;;4.90;3.83;;;;;;;;;;4981871;28;20113;-65
2023/09/13 11:10:20;;;;;;;4.20;3.80;;;;;;;;;;4987257;28;20423;-64
2023/09/13 11:12:50;;;;;;;4.35;3.95;;;;;;;;;;4991813;28;20081;-68
2023/09/13 11:15:23;;;;;;;4.65;4.30;;;;;;;;;;4989462;28;20038;-67
2023/09/13 11:17:53;;;;;;;4.18;3.83;;;;;;;;;;4997480;28;20074;-67
2023/09/13 11:20:38;;;;;;;4.30;3.90;;;;;;;;;;4993438;28;20046;-67
2023/09/13 11:23:09;;;;;;;5.38;3.83;;;;;;;;;;4988758;28;20042;-67
2023/09/13 11:25:36;;;;;;;4.25;3.85;;;;;;;;;;4982486;28;20042;-68
2023/09/13 11:28:07;;;;;;;4.07;3.40;;;;;;;;;;4986907;28;20026;-67
2023/09/13 11:30:47;;;;;;;6.23;4.17;;;;;;;;;;4995468;28;20054;-67
2023/09/13 11:33:13;;;;;;;4.03;3.75;;;;;;;;;;4991895;28;20106;-67
2023/09/13 11:35:38;;;;;;;8.55;3.85;;;;;;;;;;4992989;28;20500;-67
2023/09/13 11:38:04;;;;;;;3.95;3.65;;;;;;;;;;4988568;28;20049;-67
2023/09/13 11:40:30;;;;;;;4.75;3.80;;;;;;;;;;4995354;28;20073;-67
2023/09/13 11:42:55;;;;;;;4.43;4.13;;;;;;;;;;4980125;28;20033;-66
2023/09/13 11:45:21;;;;;;;4.22;3.92;;;;;;;;;;4990380;28;20575;-67
2023/09/13 11:47:50;;;;;;;4.00;3.60;;;;;;;;;;4992988;28;20035;-66
2023/09/13 11:50:16;;;;;;;4.03;3.65;;;;;;;;;;4988886;28;20806;-67
2023/09/13 11:53:10;;;;;;;3.90;3.60;;;;;;;;;;4990906;28;20027;-67
2023/09/13 11:55:58;;;;;;;4.45;4.05;;;;;;;;;;4992505;28;20119;-67
2023/09/13 11:58:47;;;;;;;4.15;3.75;;;;;;;;;;4991477;28;20042;-67
2023/09/13 12:01:12;;;;;;;9.57;4.30;;;;;;;;;;4991855;28;20047;-67
2023/09/13 12:03:41;;;;;;;3.83;3.63;;;;;;;;;;4991031;28;20114;-67
2023/09/13 12:06:08;;;;;;;7.55;3.90;;;;;;;;;;4987057;28;20437;-67
2023/09/13 12:08:37;;;;;;;4.00;3.70;;;;;;;;;;4997674;28;20109;-67
2023/09/13 12:11:08;;;;;;;4.10;3.70;;;;;;;;;;4993549;28;20057;-67
2023/09/13 12:13:41;;;;;;;4.43;4.03;;;;;;;;;;4993441;28;20077;-67
2023/09/13 12:16:06;;;;;;;4.88;3.20;;;;;;;;;;4989219;28;20102;-67
2023/09/13 12:18:32;;;;;;;4.72;3.80;;;;;;;;;;4985938;28;20571;-67
2023/09/13 12:20:58;;;;;;;3.72;3.47;;;;;;;;;;4995341;28;20035;-67
2023/09/13 12:23:25;;;;;;;3.88;3.40;;;;;;;;;;4993526;28;20038;-68
2023/09/13 12:25:52;;;;;;;3.78;3.47;;;;;;;;;;4987832;28;20046;-67
2023/09/13 12:28:48;;;;;;;4.03;3.72;;;;;;;;;;4986194;28;20026;-67
2023/09/13 12:31:14;;;;;;;6.63;3.80;;;;;;;;;;4978673;28;20066;-67
2023/09/13 12:33:45;;;;;;;4.05;3.70;;;;;;;;;;4990192;28;20033;-67
2023/09/13 12:36:12;;;;;;;4.13;3.50;;;;;;;;;;4984128;28;20062;-67
2023/09/13 12:38:43;;;;;;;4.25;3.50;;;;;;;;;;4984774;28;20034;-67
2023/09/13 12:41:32;;;;;;;6.05;3.92;;;;;;;;;;4986411;28;20041;-67
2023/09/13 12:43:59;;;;;;;3.65;3.35;;;;;;;;;;4980834;28;20053;-66
2023/09/13 12:46:27;;;;;;;3.75;3.40;;;;;;;;;;4987341;28;20493;-66
2023/09/13 12:48:56;;;;;;;3.97;3.67;;;;;;;;;;4995487;28;20045;-67
2023/09/13 12:51:25;;;;;;;3.38;3.17;;;;;;;;;;4991081;28;20042;-67
2023/09/13 12:53:51;;;;;;;3.38;3.13;;;;;;;;;;4989132;28;20030;-67
2023/09/13 12:56:17;;;;;;;3.53;3.22;;;;;;;;;;4990648;28;20050;-67
2023/09/13 12:58:49;;;;;;;3.72;3.42;;;;;;;;;;4984773;28;20036;-67
2023/09/13 13:01:15;;;;;;;5.50;3.40;;;;;;;;;;4987888;28;20038;-67
2023/09/13 13:04:08;;;;;;;3.65;3.35;;;;;;;;;;4985551;28;20041;-67
2023/09/13 13:06:53;;;;;;;3.58;3.20;;;;;;;;;;4987588;28;20516;-67
2023/09/13 13:09:21;;;;;;;4.22;3.47;;;;;;;;;;4990342;28;20070;-66
2023/09/13 13:11:49;;;;;;;3.50;3.25;;;;;;;;;;4986364;28;20045;-67
2023/09/13 13:14:17;;;;;;;3.80;3.50;;;;;;;;;;4990377;28;20030;-67
2023/09/13 13:16:44;;;;;;;3.70;3.40;;;;;;;;;;4979583;28;20523;-67
2023/09/13 13:19:09;;;;;;;5.43;3.20;;;;;;;;;;4991050;28;20052;-67
2023/09/13 13:21:35;;;;;;;4.72;3.33;;;;;;;;;;4995968;28;20113;-67
2023/09/13 13:24:01;;;;;;;5.13;3.33;;;;;;;;;;4993476;28;20041;-66
2023/09/13 13:26:26;;;;;;;3.08;2.88;;;;;;;;;;4990101;28;20038;-67
2023/09/13 13:28:52;;;;;;;3.95;3.10;;;;;;;;;;4991170;28;20030;-67
2023/09/13 13:31:19;;;;;;;3.33;3.03;;;;;;;;;;4995374;28;20022;-67
2023/09/13 13:33:45;;;;;;;3.50;3.20;;;;;;;;;;4987442;28;20038;-67
2023/09/13 13:36:10;;;;;;;3.53;3.15;;;;;;;;;;4992985;28;20433;-67
2023/09/13 13:38:37;;;;;;;3.15;2.95;;;;;;;;;;4991742;28;20026;-67
2023/09/13 13:41:10;;;;;;;3.35;3.05;;;;;;;;;;4983042;28;20043;-67
2023/09/13 13:43:36;;;;;;;3.13;2.92;;;;;;;;;;4995213;28;20030;-67
2023/09/13 13:46:03;;;;;;;3.50;3.20;;;;;;;;;;4993735;28;20034;-67
2023/09/13 13:48:29;;;;;;;3.28;2.72;;;;;;;;;;4997055;28;20034;-67
2023/09/13 13:50:55;;;;;;;3.05;2.85;;;;;;;;;;4996768;28;20129;-67
2023/09/13 13:53:20;;;;;;;2.85;2.65;;;;;;;;;;4988047;28;20075;-67
2023/09/13 13:55:46;;;;;;;3.10;2.90;;;;;;;;;;4995611;28;20073;-67
2023/09/13 13:58:12;;;;;;;3.10;2.80;;;;;;;;;;4991298;28;20031;-67
2023/09/13 14:00:37;;;;;;;3.30;2.92;;;;;;;;;;4989615;28;20046;-67
2023/09/13 14:03:03;;;;;;;2.85;2.65;;;;;;;;;;5006031;28;20081;-67
2023/09/13 14:05:31;;;;;;;3.05;2.70;;;;;;;;;;4993775;28;20050;-67
2023/09/13 14:07:57;;;;;;;3.00;2.72;;;;;;;;;;4996501;28;20030;-67
2023/09/13 14:10:22;;;;;;;3.17;2.97;;;;;;;;;;4995906;28;20109;-67
2023/09/13 14:12:49;;;;;;;4.03;2.40;;;;;;;;;;4993588;28;20116;-67
2023/09/13 14:15:15;;;;;;;2.60;2.50;;;;;;;;;;4992780;28;20049;-67
2023/09/13 14:17:41;;;;;;;2.67;2.50;;;;;;;;;;4989249;28;20641;-67
2023/09/13 14:20:07;;;;;;;3.25;2.60;;;;;;;;;;4989305;28;20133;-68
2023/09/13 14:22:33;;;;;;;2.70;2.50;;;;;;;;;;4989623;28;20050;-67
2023/09/13 14:24:58;;;;;;;2.75;2.58;;;;;;;;;;4993711;28;20041;-66
2023/09/13 14:27:24;;;;;;;4.13;2.40;;;;;;;;;;4981779;28;20069;-67
2023/09/13 14:29:49;;;;;;;2.33;2.22;;;;;;;;;;4990647;28;20041;-66
2023/09/13 14:32:15;;;;;;;5.10;2.78;;;;;;;;;;4992361;28;20561;-67
2023/09/13 14:34:42;;;;;;;3.55;2.65;;;;;;;;;;4992804;28;20038;-66
2023/09/13 14:37:08;;;;;;;4.72;2.63;;;;;;;;;;4991458;28;20050;-65
2023/09/13 14:39:34;;;;;;;3.03;2.40;;;;;;;;;;4990142;28;20038;-66
2023/09/13 14:42:00;;;;;;;8.57;2.60;;;;;;;;;;4987783;28;20022;-67
2023/09/13 14:44:25;;;;;;;6.60;2.58;;;;;;;;;;4985152;28;20543;-66